createdAt,value
2018-09-05T00:00:51.378Z,16.03
2018-09-05T00:01:51.314Z,16.07
2018-09-05T00:02:51.226Z,16.01
2018-09-05T00:03:51.155Z,16.06
2018-09-05T00:04:51.073Z,16.10
2018-09-05T00:05:51.012Z,16.14
2018-09-05T00:06:50.932Z,16.08
2018-09-05T00:07:50.860Z,16.10
2018-09-05T00:08:50.781Z,16.16
2018-09-05T00:09:50.709Z,16.15
2018-09-05T00:10:50.618Z,16.10
2018-09-05T00:11:50.552Z,16.14
2018-09-05T00:12:50.473Z,16.10
2018-09-05T00:13:50.414Z,16.15
2018-09-05T00:14:50.330Z,16.18
2018-09-05T00:15:50.256Z,16.04
2018-09-05T00:16:50.177Z,16.04
2018-09-05T00:17:50.108Z,16.04
2018-09-05T00:18:50.029Z,15.94
2018-09-05T00:19:49.964Z,15.97
2018-09-05T00:20:49.876Z,16.01
2018-09-05T00:21:49.808Z,15.91
2018-09-05T00:22:49.726Z,15.91
2018-09-05T00:23:49.670Z,15.85
2018-09-05T00:24:49.575Z,15.85
2018-09-05T00:25:49.507Z,15.89
2018-09-05T00:26:49.428Z,15.89
2018-09-05T00:27:49.357Z,15.83
2018-09-05T00:28:49.278Z,15.71
2018-09-05T00:29:49.201Z,15.68
2018-09-05T00:30:49.122Z,15.63
2018-09-05T00:31:49.056Z,15.64
2018-09-05T00:32:48.976Z,15.57
2018-09-05T00:33:48.907Z,15.66
2018-09-05T00:34:48.826Z,15.63
2018-09-05T00:35:48.759Z,15.64
2018-09-05T00:36:48.676Z,15.61
2018-09-05T00:37:48.611Z,15.60
2018-09-05T00:38:48.517Z,15.63
2018-09-05T00:39:48.460Z,15.63
2018-09-05T00:40:48.372Z,15.63
2018-09-05T00:41:48.303Z,15.66
2018-09-05T00:42:48.227Z,15.63
2018-09-05T00:43:48.158Z,15.60
2018-09-05T00:44:48.075Z,15.53
2018-09-05T00:45:48.006Z,15.48
2018-09-05T00:46:47.918Z,15.59
2018-09-05T00:47:47.849Z,15.52
2018-09-05T00:48:47.769Z,15.43
2018-09-05T00:49:47.701Z,15.52
2018-09-05T00:50:47.623Z,15.52
2018-09-05T00:51:47.556Z,15.38
2018-09-05T00:52:47.473Z,15.39
2018-09-05T00:53:47.405Z,15.33
2018-09-05T00:54:47.316Z,15.24
2018-09-05T00:55:47.250Z,15.26
2018-09-05T00:56:47.168Z,15.13
2018-09-05T00:57:47.096Z,15.15
2018-09-05T00:58:47.023Z,15.16
2018-09-05T00:59:46.951Z,15.12
2018-09-05T01:00:46.874Z,15.23
2018-09-05T01:01:46.804Z,15.13
2018-09-05T01:02:46.712Z,15.13
2018-09-05T01:03:46.644Z,15.05
2018-09-05T01:04:46.565Z,15.06
2018-09-05T01:05:46.498Z,14.93
2018-09-05T01:06:46.418Z,14.91
2018-09-05T01:07:46.353Z,14.94
2018-09-05T01:08:46.258Z,14.94
2018-09-05T01:09:46.197Z,14.94
2018-09-05T01:10:46.111Z,14.95
2018-09-05T01:11:46.044Z,14.94
2018-09-05T01:12:45.964Z,14.97
2018-09-05T01:13:45.897Z,14.91
2018-09-05T01:14:45.805Z,14.93
2018-09-05T01:15:45.752Z,14.93
2018-09-05T01:16:45.658Z,14.87
2018-09-05T01:17:45.588Z,14.98
2018-09-05T01:18:45.509Z,14.88
2018-09-05T01:19:45.441Z,14.88
2018-09-05T01:20:45.362Z,14.90
2018-09-05T01:21:45.292Z,14.90
2018-09-05T01:22:45.205Z,14.94
2018-09-05T01:23:45.138Z,14.97
2018-09-05T01:24:45.056Z,14.93
2018-09-05T01:25:44.993Z,14.94
2018-09-05T01:26:44.908Z,14.91
2018-09-05T01:27:44.841Z,14.95
2018-09-05T01:28:44.750Z,14.85
2018-09-05T01:29:44.689Z,14.84
2018-09-05T01:30:44.604Z,14.85
2018-09-05T01:31:44.533Z,14.85
2018-09-05T01:32:44.450Z,14.91
2018-09-05T01:33:44.386Z,14.84
2018-09-05T01:34:44.297Z,14.84
2018-09-05T01:35:44.228Z,14.85
2018-09-05T01:36:44.148Z,14.78
2018-09-05T01:37:44.081Z,14.85
2018-09-05T01:38:44.001Z,14.88
2018-09-05T01:39:43.931Z,14.84
2018-09-05T01:40:43.843Z,14.87
2018-09-05T01:41:43.775Z,14.85
2018-09-05T01:42:43.696Z,14.85
2018-09-05T01:43:43.625Z,14.90
2018-09-05T01:44:43.548Z,14.87
2018-09-05T01:45:43.476Z,14.75
2018-09-05T01:46:43.389Z,14.67
2018-09-05T01:47:43.320Z,14.61
2018-09-05T01:48:43.243Z,14.56
2018-09-05T01:49:43.176Z,14.60
2018-09-05T01:50:43.093Z,14.52
2018-09-05T01:51:43.023Z,14.49
2018-09-05T01:52:42.938Z,14.59
2018-09-05T01:53:42.865Z,14.46
2018-09-05T01:54:42.787Z,14.52
2018-09-05T01:55:42.718Z,14.60
2018-09-05T01:56:42.629Z,14.60
2018-09-05T01:57:42.569Z,14.65
2018-09-05T01:58:42.481Z,14.65
2018-09-05T01:59:42.411Z,14.78
2018-09-05T02:00:42.339Z,14.74
2018-09-05T02:01:42.264Z,14.80
2018-09-05T02:02:42.178Z,14.79
2018-09-05T02:03:42.107Z,14.65
2018-09-05T02:04:42.027Z,14.57
2018-09-05T02:05:41.960Z,14.56
2018-09-05T02:06:41.878Z,14.52
2018-09-05T02:07:41.813Z,14.47
2018-09-05T02:08:41.722Z,14.41
2018-09-05T02:09:41.662Z,14.41
2018-09-05T02:10:41.570Z,14.47
2018-09-05T02:11:41.506Z,14.50
2018-09-05T02:12:41.412Z,14.52
2018-09-05T02:13:41.353Z,14.56
2018-09-05T02:14:41.265Z,14.53
2018-09-05T02:15:41.197Z,14.60
2018-09-05T02:16:41.119Z,14.56
2018-09-05T02:17:41.049Z,14.64
2018-09-05T02:18:40.960Z,14.65
2018-09-05T02:19:40.894Z,14.65
2018-09-05T02:20:40.813Z,14.59
2018-09-05T02:21:40.746Z,14.61
2018-09-05T02:22:40.667Z,14.50
2018-09-05T02:23:40.596Z,14.54
2018-09-05T02:24:40.508Z,14.49
2018-09-05T02:25:40.446Z,14.42
2018-09-05T02:26:40.358Z,14.41
2018-09-05T02:27:40.293Z,14.35
2018-09-05T02:28:40.210Z,14.39
2018-09-05T02:29:40.145Z,14.42
2018-09-05T02:30:40.051Z,14.44
2018-09-05T02:31:39.985Z,14.49
2018-09-05T02:32:39.904Z,14.49
2018-09-05T02:33:39.835Z,14.42
2018-09-05T02:34:39.749Z,14.50
2018-09-05T02:35:39.680Z,14.41
2018-09-05T02:36:39.609Z,14.49
2018-09-05T02:37:39.527Z,14.52
2018-09-05T02:38:39.440Z,14.52
2018-09-05T02:39:39.383Z,14.54
2018-09-05T02:40:39.311Z,14.47
2018-09-05T02:41:39.223Z,14.50
2018-09-05T02:42:39.145Z,14.50
2018-09-05T02:43:39.081Z,14.50
2018-09-05T02:44:38.994Z,14.47
2018-09-05T02:45:38.922Z,14.47
2018-09-05T02:46:38.844Z,14.41
2018-09-05T02:47:38.777Z,14.36
2018-09-05T02:48:38.691Z,14.34
2018-09-05T02:49:38.612Z,14.44
2018-09-05T02:50:38.536Z,14.29
2018-09-05T02:51:38.464Z,14.28
2018-09-05T02:52:38.385Z,14.29
2018-09-05T02:53:38.316Z,14.24
2018-09-05T02:54:38.227Z,14.20
2018-09-05T02:55:38.159Z,14.27
2018-09-05T02:56:38.079Z,14.29
2018-09-05T02:57:38.011Z,14.28
2018-09-05T02:58:37.922Z,14.20
2018-09-05T02:59:37.848Z,14.27
2018-09-05T03:00:37.771Z,14.23
2018-09-05T03:01:37.701Z,14.14
2018-09-05T03:02:37.624Z,14.19
2018-09-05T03:03:37.554Z,14.21
2018-09-05T03:04:37.468Z,14.14
2018-09-05T03:05:37.400Z,14.16
2018-09-05T03:06:37.319Z,14.16
2018-09-05T03:07:37.247Z,14.20
2018-09-05T03:08:37.161Z,14.14
2018-09-05T03:09:37.090Z,14.09
2018-09-05T03:10:37.014Z,14.14
2018-09-05T03:11:36.950Z,14.17
2018-09-05T03:12:36.858Z,14.17
2018-09-05T03:13:36.793Z,14.14
2018-09-05T03:14:36.707Z,14.09
2018-09-05T03:15:36.637Z,14.13
2018-09-05T03:16:36.559Z,14.19
2018-09-05T03:17:36.490Z,14.14
2018-09-05T03:18:36.403Z,14.10
2018-09-05T03:19:36.331Z,14.05
2018-09-05T03:20:36.253Z,14.03
2018-09-05T03:21:36.184Z,13.96
2018-09-05T03:22:36.096Z,13.99
2018-09-05T03:23:36.084Z,13.91
2018-09-05T03:24:35.948Z,13.92
2018-09-05T03:25:35.879Z,13.92
2018-09-05T03:26:35.789Z,13.99
2018-09-05T03:27:35.722Z,14.01
2018-09-05T03:28:35.646Z,13.86
2018-09-05T03:29:35.577Z,13.84
2018-09-05T03:30:35.482Z,13.91
2018-09-05T03:31:35.423Z,13.87
2018-09-05T03:32:35.391Z,13.83
2018-09-05T03:33:35.271Z,13.86
2018-09-05T03:34:35.177Z,13.89
2018-09-05T03:35:35.121Z,13.92
2018-09-05T03:36:35.030Z,13.95
2018-09-05T03:37:34.961Z,13.95
2018-09-05T03:38:34.883Z,13.96
2018-09-05T03:39:34.810Z,13.91
2018-09-05T03:40:34.722Z,13.96
2018-09-05T03:41:34.690Z,13.92
2018-09-05T03:42:34.573Z,13.91
2018-09-05T03:43:34.605Z,13.91
2018-09-05T03:44:34.418Z,13.95
2018-09-05T03:45:34.397Z,13.87
2018-09-05T03:46:34.259Z,13.74
2018-09-05T03:47:34.194Z,13.92
2018-09-05T03:48:34.112Z,13.81
2018-09-05T03:49:34.054Z,13.73
2018-09-05T03:50:33.963Z,13.80
2018-09-05T03:51:33.942Z,13.71
2018-09-05T03:52:33.808Z,13.76
2018-09-05T03:53:33.749Z,13.71
2018-09-05T03:54:33.658Z,13.78
2018-09-05T03:55:33.659Z,13.68
2018-09-05T03:56:33.499Z,13.63
2018-09-05T03:57:33.471Z,13.78
2018-09-05T03:58:33.352Z,13.73
2018-09-05T03:59:33.381Z,13.70
2018-09-05T04:00:33.193Z,13.66
2018-09-05T04:01:33.194Z,13.66
2018-09-05T04:02:33.045Z,13.78
2018-09-05T04:03:32.993Z,13.73
2018-09-05T04:04:32.889Z,13.71
2018-09-05T04:05:32.909Z,13.66
2018-09-05T04:06:32.740Z,13.76
2018-09-05T04:07:32.672Z,13.74
2018-09-05T04:08:32.579Z,13.77
2018-09-05T04:09:32.548Z,13.66
2018-09-05T04:10:32.434Z,13.66
2018-09-05T04:11:32.364Z,13.70
2018-09-05T04:12:32.332Z,13.58
2018-09-05T04:13:32.206Z,13.48
2018-09-05T04:14:32.129Z,13.48
2018-09-05T04:15:32.154Z,13.53
2018-09-05T04:16:31.969Z,13.53
2018-09-05T04:17:31.965Z,13.45
2018-09-05T04:18:31.825Z,13.43
2018-09-05T04:19:31.775Z,13.47
2018-09-05T04:20:31.671Z,13.48
2018-09-05T04:21:31.682Z,13.50
2018-09-05T04:22:31.519Z,13.45
2018-09-05T04:23:31.490Z,13.53
2018-09-05T04:24:31.359Z,13.66
2018-09-05T04:25:31.398Z,13.53
2018-09-05T04:26:31.212Z,13.62
2018-09-05T04:27:31.235Z,13.43
2018-09-05T04:28:31.065Z,13.43
2018-09-05T04:29:31.069Z,13.38
2018-09-05T04:30:30.908Z,13.37
2018-09-05T04:31:30.925Z,13.33
2018-09-05T04:32:30.743Z,13.33
2018-09-05T04:33:30.737Z,13.29
2018-09-05T04:34:30.595Z,13.37
2018-09-05T04:35:30.565Z,13.32
2018-09-05T04:36:30.442Z,13.27
2018-09-05T04:37:30.461Z,13.25
2018-09-05T04:38:30.292Z,13.17
2018-09-05T04:39:30.263Z,13.04
2018-09-05T04:40:30.136Z,12.97
2018-09-05T04:41:30.176Z,12.97
2018-09-05T04:42:29.986Z,12.96
2018-09-05T04:43:29.989Z,13.06
2018-09-05T04:44:29.828Z,13.02
2018-09-05T04:45:29.789Z,13.14
2018-09-05T04:46:29.681Z,13.14
2018-09-05T04:47:29.608Z,13.14
2018-09-05T04:48:29.523Z,13.22
2018-09-05T04:49:29.457Z,13.15
2018-09-05T04:50:29.366Z,13.14
2018-09-05T04:51:29.297Z,13.19
2018-09-05T04:52:29.220Z,13.14
2018-09-05T04:53:29.148Z,13.18
2018-09-05T04:54:29.061Z,13.11
2018-09-05T04:55:28.987Z,13.07
2018-09-05T04:56:28.911Z,13.18
2018-09-05T04:57:28.962Z,13.19
2018-09-05T04:58:28.823Z,13.14
2018-09-05T04:59:28.761Z,13.11
2018-09-05T05:00:28.602Z,13.09
2018-09-05T05:01:28.566Z,13.09
2018-09-05T05:02:28.449Z,13.19
2018-09-05T05:03:28.478Z,13.17
2018-09-05T05:04:28.311Z,13.21
2018-09-05T05:05:28.301Z,13.24
2018-09-05T05:06:28.147Z,13.29
2018-09-05T05:07:28.088Z,13.27
2018-09-05T05:08:27.992Z,13.21
2018-09-05T05:09:28.005Z,13.22
2018-09-05T05:10:27.836Z,13.22
2018-09-05T05:11:27.814Z,13.32
2018-09-05T05:12:27.716Z,13.11
2018-09-05T05:13:27.726Z,13.11
2018-09-05T05:14:27.531Z,13.19
2018-09-05T05:15:27.532Z,13.14
2018-09-05T05:16:27.378Z,13.19
2018-09-05T05:17:27.342Z,13.17
2018-09-05T05:18:27.225Z,13.22
2018-09-05T05:19:27.251Z,13.19
2018-09-05T05:20:27.062Z,13.24
2018-09-05T05:21:27.056Z,13.24
2018-09-05T05:22:26.919Z,13.18
2018-09-05T05:23:26.918Z,13.14
2018-09-05T05:24:26.762Z,13.17
2018-09-05T05:25:26.781Z,13.22
2018-09-05T05:26:26.608Z,13.17
2018-09-05T05:27:26.589Z,13.18
2018-09-05T05:28:26.450Z,13.21
2018-09-05T05:29:26.391Z,13.24
2018-09-05T05:30:26.301Z,13.27
2018-09-05T05:31:26.306Z,13.28
2018-09-05T05:32:26.204Z,13.27
2018-09-05T05:33:26.117Z,13.27
2018-09-05T05:34:25.992Z,13.24
2018-09-05T05:35:26.022Z,13.24
2018-09-05T05:36:25.844Z,13.33
2018-09-05T05:37:25.833Z,13.36
2018-09-05T05:38:25.685Z,13.38
2018-09-05T05:39:25.645Z,13.38
2018-09-05T05:40:25.537Z,13.47
2018-09-05T05:41:25.467Z,13.48
2018-09-05T05:42:25.374Z,13.52
2018-09-05T05:43:25.364Z,13.55
2018-09-05T05:44:25.229Z,13.53
2018-09-05T05:45:25.166Z,13.50
2018-09-05T05:46:25.072Z,13.61
2018-09-05T05:47:25.080Z,13.59
2018-09-05T05:48:24.924Z,13.66
2018-09-05T05:49:24.856Z,13.65
2018-09-05T05:50:24.765Z,13.62
2018-09-05T05:51:24.697Z,13.65
2018-09-05T05:52:24.609Z,13.71
2018-09-05T05:53:24.609Z,13.68
2018-09-05T05:54:24.463Z,13.77
2018-09-05T05:55:24.423Z,13.80
2018-09-05T05:56:24.302Z,13.74
2018-09-05T05:57:24.247Z,13.74
2018-09-05T05:58:24.186Z,13.91
2018-09-05T05:59:24.190Z,13.87
2018-09-05T06:00:24.062Z,13.95
2018-09-05T06:01:25.604Z,13.94
2018-09-05T06:02:25.465Z,13.94
2018-09-05T06:03:25.726Z,14.05
2018-09-05T06:04:37.792Z,14.07
2018-09-05T06:05:25.468Z,14.11
2018-09-05T06:06:29.924Z,14.11
2018-09-05T06:07:25.105Z,14.20
2018-09-05T06:08:25.006Z,14.13
2018-09-05T06:09:25.183Z,14.16
2018-09-05T06:10:26.228Z,14.27
2018-09-05T06:11:24.774Z,14.28
2018-09-05T06:12:25.135Z,14.35
2018-09-05T06:13:24.835Z,14.36
2018-09-05T06:14:24.636Z,14.41
2018-09-05T06:15:24.821Z,14.34
2018-09-05T06:16:24.737Z,14.35
2018-09-05T06:17:24.260Z,14.38
2018-09-05T06:18:24.486Z,14.42
2018-09-05T06:19:24.354Z,14.36
2018-09-05T06:20:22.534Z,14.36
2018-09-05T06:21:22.391Z,14.52
2018-09-05T06:22:22.339Z,14.49
2018-09-05T06:23:22.242Z,14.53
2018-09-05T06:24:22.251Z,14.64
2018-09-05T06:25:22.092Z,14.68
2018-09-05T06:26:22.060Z,14.60
2018-09-05T06:27:21.932Z,14.67
2018-09-05T06:28:21.982Z,14.72
2018-09-05T06:29:21.786Z,14.65
2018-09-05T06:30:21.720Z,14.84
2018-09-05T06:31:21.927Z,14.85
2018-09-05T06:32:21.549Z,14.80
2018-09-05T06:33:21.600Z,14.85
2018-09-05T06:34:22.358Z,14.85
2018-09-05T06:35:21.512Z,14.93
2018-09-05T06:36:21.243Z,14.94
2018-09-05T06:37:21.328Z,14.95
2018-09-05T06:38:21.096Z,15.08
2018-09-05T06:39:21.237Z,15.06
2018-09-05T06:40:20.935Z,15.13
2018-09-05T06:41:21.039Z,15.08
2018-09-05T06:42:20.800Z,15.15
2018-09-05T06:43:20.851Z,15.18
2018-09-05T06:44:20.635Z,15.15
2018-09-05T06:45:20.767Z,15.23
2018-09-05T06:46:20.483Z,15.28
2018-09-05T06:47:20.572Z,15.28
2018-09-05T06:48:20.336Z,15.34
2018-09-05T06:49:20.488Z,15.35
2018-09-05T06:50:20.179Z,15.49
2018-09-05T06:51:20.307Z,15.43
2018-09-05T06:52:20.032Z,15.48
2018-09-05T06:53:20.102Z,15.55
2018-09-05T06:54:19.875Z,15.45
2018-09-05T06:55:20.012Z,15.53
2018-09-05T06:56:19.724Z,15.59
2018-09-05T06:57:19.714Z,15.55
2018-09-05T06:58:19.693Z,15.61
2018-09-05T06:59:19.526Z,15.67
2018-09-05T07:00:19.418Z,15.60
2018-09-05T07:01:19.439Z,15.61
2018-09-05T07:02:19.269Z,15.67
2018-09-05T07:03:19.252Z,15.61
2018-09-05T07:04:19.116Z,15.67
2018-09-05T07:05:19.163Z,15.71
2018-09-05T07:06:18.972Z,15.73
2018-09-05T07:07:18.966Z,15.78
2018-09-05T07:08:18.816Z,15.76
2018-09-05T07:09:18.777Z,15.85
2018-09-05T07:10:18.658Z,15.78
2018-09-05T07:11:18.690Z,15.79
2018-09-05T07:12:18.509Z,15.81
2018-09-05T07:13:18.501Z,15.81
2018-09-05T07:14:18.422Z,15.76
2018-09-05T07:15:18.413Z,15.76
2018-09-05T07:16:18.206Z,15.76
2018-09-05T07:17:18.217Z,15.86
2018-09-05T07:18:18.063Z,15.85
2018-09-05T07:19:18.028Z,15.88
2018-09-05T07:20:17.901Z,15.88
2018-09-05T07:21:18.023Z,16.03
2018-09-05T07:22:17.750Z,16.00
2018-09-05T07:23:17.751Z,16.01
2018-09-05T07:24:17.603Z,16.06
2018-09-05T07:25:17.663Z,16.12
2018-09-05T07:26:17.446Z,16.08
2018-09-05T07:27:17.375Z,16.20
2018-09-05T07:28:17.296Z,16.16
2018-09-05T07:29:17.276Z,16.16
2018-09-05T07:30:17.150Z,16.16
2018-09-05T07:31:17.189Z,16.16
2018-09-05T07:32:16.999Z,16.18
2018-09-05T07:33:17.007Z,16.12
2018-09-05T07:34:16.843Z,16.18
2018-09-05T07:35:16.783Z,16.14
2018-09-05T07:36:16.689Z,16.16
2018-09-05T07:37:16.718Z,16.20
2018-09-05T07:38:16.551Z,16.25
2018-09-05T07:39:16.526Z,16.14
2018-09-05T07:40:16.388Z,16.16
2018-09-05T07:41:16.439Z,16.15
2018-09-05T07:42:16.244Z,16.10
2018-09-05T07:43:16.254Z,16.15
2018-09-05T07:44:16.092Z,16.15
2018-09-05T07:45:16.056Z,16.22
2018-09-05T07:46:15.946Z,16.23
2018-09-05T07:47:15.965Z,16.27
2018-09-05T07:48:15.787Z,16.29
2018-09-05T07:49:15.784Z,16.41
2018-09-05T07:50:15.638Z,16.34
2018-09-05T07:51:15.690Z,16.45
2018-09-05T07:52:15.490Z,16.50
2018-09-05T07:53:15.501Z,16.55
2018-09-05T07:54:15.341Z,16.71
2018-09-05T07:55:15.313Z,16.74
2018-09-05T07:56:15.187Z,16.81
2018-09-05T07:57:15.238Z,16.90
2018-09-05T07:58:15.036Z,16.98
2018-09-05T07:59:14.999Z,16.93
2018-09-05T08:00:14.890Z,17.02
2018-09-05T08:01:14.939Z,17.00
2018-09-05T08:02:14.741Z,16.98
2018-09-05T08:03:14.751Z,17.13
2018-09-05T08:04:14.592Z,17.15
2018-09-05T08:05:14.562Z,17.17
2018-09-05T08:06:14.437Z,17.33
2018-09-05T08:07:14.477Z,17.46
2018-09-05T08:08:14.291Z,17.57
2018-09-05T08:09:14.276Z,17.70
2018-09-05T08:10:14.137Z,17.88
2018-09-05T08:11:14.188Z,17.91
2018-09-05T08:12:13.988Z,18.06
2018-09-05T08:13:14.000Z,18.28
2018-09-05T08:14:13.842Z,18.42
2018-09-05T08:15:13.919Z,18.42
2018-09-05T08:16:13.697Z,18.58
2018-09-05T08:17:13.618Z,18.65
2018-09-05T08:18:13.672Z,18.79
2018-09-05T08:19:13.469Z,18.95
2018-09-05T08:20:13.538Z,19.06
2018-09-05T08:21:13.319Z,19.18
2018-09-05T08:22:13.342Z,19.39
2018-09-05T08:23:13.172Z,19.40
2018-09-05T08:24:13.164Z,19.55
2018-09-05T08:25:13.024Z,19.61
2018-09-05T08:26:13.064Z,19.68
2018-09-05T08:27:12.876Z,19.73
2018-09-05T08:28:12.881Z,19.75
2018-09-05T08:29:12.790Z,19.79
2018-09-05T08:30:12.867Z,19.83
2018-09-05T08:31:12.580Z,19.93
2018-09-05T08:32:12.600Z,19.97
2018-09-05T08:33:12.432Z,20.08
2018-09-05T08:34:12.504Z,20.15
2018-09-05T08:35:12.460Z,20.10
2018-09-05T08:36:12.554Z,20.31
2018-09-05T08:37:12.452Z,20.33
2018-09-05T08:38:12.165Z,20.38
2018-09-05T08:39:11.999Z,20.40
2018-09-05T08:40:12.039Z,20.40
2018-09-05T08:41:11.932Z,20.40
2018-09-05T08:42:11.854Z,20.40
2018-09-05T08:43:11.704Z,20.56
2018-09-05T08:44:12.018Z,20.51
2018-09-05T08:45:11.673Z,20.57
2018-09-05T08:46:11.800Z,20.61
2018-09-05T08:47:11.440Z,20.68
2018-09-05T08:48:11.531Z,20.71
2018-09-05T08:49:11.296Z,20.90
2018-09-05T08:50:11.296Z,20.90
2018-09-05T08:51:11.121Z,21.11
2018-09-05T08:52:11.204Z,21.08
2018-09-05T08:53:10.977Z,21.21
2018-09-05T08:54:11.004Z,21.29
2018-09-05T08:55:10.922Z,21.26
2018-09-05T08:56:10.886Z,21.27
2018-09-05T08:57:10.687Z,21.29
2018-09-05T08:58:10.727Z,21.31
2018-09-05T08:59:10.652Z,21.36
2018-09-05T09:00:10.595Z,21.41
2018-09-05T09:01:10.397Z,21.54
2018-09-05T09:02:10.410Z,21.66
2018-09-05T09:03:10.255Z,21.74
2018-09-05T09:04:10.187Z,21.76
2018-09-05T09:05:10.227Z,21.75
2018-09-05T09:06:10.180Z,21.57
2018-09-05T09:07:09.965Z,21.61
2018-09-05T09:08:09.980Z,21.76
2018-09-05T09:09:09.821Z,21.81
2018-09-05T09:10:09.890Z,21.76
2018-09-05T09:11:09.682Z,21.86
2018-09-05T09:12:09.604Z,21.94
2018-09-05T09:13:09.531Z,21.91
2018-09-05T09:14:09.616Z,21.98
2018-09-05T09:15:09.386Z,22.08
2018-09-05T09:16:09.425Z,21.97
2018-09-05T09:17:09.253Z,21.91
2018-09-05T09:18:09.328Z,21.95
2018-09-05T09:19:09.110Z,22.00
2018-09-05T09:20:09.031Z,21.97
2018-09-05T09:21:08.958Z,22.05
2018-09-05T09:22:08.952Z,22.19
2018-09-05T09:23:08.819Z,22.17
2018-09-05T09:24:08.864Z,22.13
2018-09-05T09:25:08.675Z,22.17
2018-09-05T09:26:08.676Z,22.23
2018-09-05T09:27:08.527Z,22.31
2018-09-05T09:28:08.638Z,22.38
2018-09-05T09:29:08.391Z,22.52
2018-09-05T09:30:08.390Z,22.54
2018-09-05T09:31:08.252Z,22.54
2018-09-05T09:32:08.303Z,22.63
2018-09-05T09:33:08.110Z,22.67
2018-09-05T09:34:08.108Z,22.60
2018-09-05T09:35:07.968Z,22.59
2018-09-05T09:36:08.020Z,22.50
2018-09-05T09:37:07.819Z,22.47
2018-09-05T09:38:07.829Z,22.68
2018-09-05T09:39:07.680Z,22.60
2018-09-05T09:40:07.741Z,22.71
2018-09-05T09:41:07.541Z,22.86
2018-09-05T09:42:07.556Z,22.87
2018-09-05T09:43:07.395Z,22.81
2018-09-05T09:44:07.467Z,23.00
2018-09-05T09:45:07.255Z,23.08
2018-09-05T09:46:07.185Z,22.99
2018-09-05T09:47:07.274Z,23.09
2018-09-05T09:48:07.044Z,23.14
2018-09-05T09:49:07.090Z,23.22
2018-09-05T09:50:06.901Z,23.27
2018-09-05T09:51:07.002Z,23.40
2018-09-05T09:52:06.760Z,23.37
2018-09-05T09:53:06.805Z,23.40
2018-09-05T09:54:06.625Z,23.34
2018-09-05T09:55:06.715Z,23.46
2018-09-05T09:56:06.478Z,23.60
2018-09-05T09:57:06.530Z,23.68
2018-09-05T09:58:06.340Z,23.89
2018-09-05T09:59:06.443Z,23.98
2018-09-05T10:00:06.205Z,24.16
2018-09-05T10:01:06.253Z,24.34
2018-09-05T10:02:06.098Z,24.45
2018-09-05T10:03:06.084Z,24.44
2018-09-05T10:04:05.988Z,24.38
2018-09-05T10:05:05.971Z,24.52
2018-09-05T10:06:05.776Z,24.54
2018-09-05T10:07:05.889Z,24.62
2018-09-05T10:08:05.642Z,24.62
2018-09-05T10:09:05.717Z,24.57
2018-09-05T10:10:05.686Z,24.60
2018-09-05T10:11:05.499Z,24.60
2018-09-05T10:12:05.360Z,24.56
2018-09-05T10:13:05.418Z,24.63
2018-09-05T10:14:05.225Z,24.60
2018-09-05T10:15:05.319Z,24.53
2018-09-05T10:16:05.078Z,24.78
2018-09-05T10:17:05.173Z,24.80
2018-09-05T10:18:04.954Z,24.82
2018-09-05T10:19:05.040Z,24.73
2018-09-05T10:20:04.802Z,24.78
2018-09-05T10:21:04.879Z,24.73
2018-09-05T10:22:04.661Z,24.59
2018-09-05T10:23:04.760Z,24.60
2018-09-05T10:24:04.577Z,24.47
2018-09-05T10:25:04.575Z,24.34
2018-09-05T10:26:04.391Z,24.27
2018-09-05T10:27:04.494Z,24.30
2018-09-05T10:28:04.251Z,24.40
2018-09-05T10:29:04.286Z,24.41
2018-09-05T10:30:04.113Z,24.52
2018-09-05T10:31:04.201Z,24.69
2018-09-05T10:32:03.978Z,24.88
2018-09-05T10:33:03.917Z,24.98
2018-09-05T10:34:04.027Z,25.09
2018-09-05T10:35:03.767Z,25.09
2018-09-05T10:36:03.827Z,25.09
2018-09-05T10:37:03.633Z,25.10
2018-09-05T10:38:03.735Z,25.16
2018-09-05T10:39:03.496Z,25.16
2018-09-05T10:40:03.550Z,25.28
2018-09-05T10:41:03.353Z,25.30
2018-09-05T10:42:03.466Z,25.19
2018-09-05T10:43:03.299Z,25.22
2018-09-05T10:44:03.280Z,25.25
2018-09-05T10:45:03.078Z,25.30
2018-09-05T10:46:03.173Z,25.34
2018-09-05T10:47:02.936Z,25.49
2018-09-05T10:48:02.989Z,25.56
2018-09-05T10:49:02.821Z,25.71
2018-09-05T10:50:02.759Z,25.82
2018-09-05T10:51:02.803Z,25.86
2018-09-05T10:52:02.603Z,25.96
2018-09-05T10:53:02.615Z,25.96
2018-09-05T10:54:02.469Z,26.12
2018-09-05T10:55:02.529Z,26.18
2018-09-05T10:56:02.329Z,26.23
2018-09-05T10:57:02.438Z,26.31
2018-09-05T10:58:02.209Z,26.46
2018-09-05T10:59:02.142Z,26.46
2018-09-05T11:00:02.052Z,26.43
2018-09-05T11:01:02.053Z,26.38
2018-09-05T11:02:01.916Z,26.43
2018-09-05T11:03:01.970Z,26.43
2018-09-05T11:04:01.779Z,26.38
2018-09-05T11:05:01.884Z,26.43
2018-09-05T11:06:01.645Z,26.39
2018-09-05T11:07:01.690Z,26.39
2018-09-05T11:08:01.511Z,26.40
2018-09-05T11:09:01.612Z,26.35
2018-09-05T11:10:01.371Z,26.39
2018-09-05T11:11:01.415Z,26.43
2018-09-05T11:12:01.237Z,26.58
2018-09-05T11:13:01.322Z,26.60
2018-09-05T11:14:01.107Z,26.53
2018-09-05T11:15:01.126Z,26.39
2018-09-05T11:16:00.974Z,26.47
2018-09-05T11:17:01.039Z,26.30
2018-09-05T11:18:00.827Z,26.23
2018-09-05T11:19:00.954Z,26.16
2018-09-05T11:20:00.693Z,26.38
2018-09-05T11:21:00.765Z,26.49
2018-09-05T11:22:00.565Z,26.61
2018-09-05T11:23:00.671Z,26.72
2018-09-05T11:24:00.422Z,26.95
2018-09-05T11:25:00.477Z,27.01
2018-09-05T11:26:00.287Z,27.07
2018-09-05T11:27:00.389Z,27.12
2018-09-05T11:28:00.191Z,27.23
2018-09-05T11:29:00.212Z,27.07
2018-09-05T11:30:00.022Z,27.13
2018-09-05T11:31:00.114Z,27.12
2018-09-05T11:31:59.888Z,27.12
2018-09-05T11:32:59.924Z,27.09
2018-09-05T11:33:59.754Z,27.20
2018-09-05T11:34:59.834Z,27.17
2018-09-05T11:35:59.615Z,27.27
2018-09-05T11:36:59.796Z,27.32
2018-09-05T11:37:59.476Z,27.31
2018-09-05T11:38:59.552Z,27.41
2018-09-05T11:39:59.352Z,27.49
2018-09-05T11:40:59.469Z,27.42
2018-09-05T11:41:59.226Z,27.69
2018-09-05T11:42:59.285Z,27.69
2018-09-05T11:43:59.087Z,27.70
2018-09-05T11:44:59.212Z,27.79
2018-09-05T11:45:58.944Z,27.69
2018-09-05T11:46:58.999Z,27.35
2018-09-05T11:47:58.819Z,27.31
2018-09-05T11:48:58.912Z,27.14
2018-09-05T11:49:58.684Z,27.16
2018-09-05T11:50:58.712Z,27.19
2018-09-05T11:51:58.551Z,27.16
2018-09-05T11:52:58.623Z,27.14
2018-09-05T11:53:58.417Z,27.20
2018-09-05T11:54:58.539Z,27.27
2018-09-05T11:55:58.277Z,27.44
2018-09-05T11:56:58.351Z,27.39
2018-09-05T11:57:58.151Z,27.65
2018-09-05T11:58:58.261Z,27.82
2018-09-05T11:59:58.023Z,27.92
2018-09-05T12:00:58.071Z,28.01
2018-09-05T12:01:57.884Z,28.16
2018-09-05T12:02:57.982Z,28.20
2018-09-05T12:03:57.743Z,28.38
2018-09-05T12:04:57.854Z,28.39
2018-09-05T12:05:57.612Z,28.39
2018-09-05T12:06:57.699Z,28.41
2018-09-05T12:07:57.481Z,28.47
2018-09-05T12:08:57.612Z,28.44
2018-09-05T12:09:57.351Z,28.44
2018-09-05T12:10:57.424Z,28.35
2018-09-05T12:11:57.212Z,28.22
2018-09-05T12:12:57.245Z,27.98
2018-09-05T12:13:57.078Z,27.54
2018-09-05T12:14:57.151Z,27.29
2018-09-05T12:15:56.948Z,27.12
2018-09-05T12:16:57.055Z,26.72
2018-09-05T12:17:56.812Z,26.39
2018-09-05T12:18:56.752Z,26.21
2018-09-05T12:19:56.687Z,26.21
2018-09-05T12:20:56.771Z,26.32
2018-09-05T12:21:56.544Z,26.34
2018-09-05T12:22:56.608Z,26.45
2018-09-05T12:23:56.714Z,26.35
2018-09-05T12:24:56.502Z,26.34
2018-09-05T12:25:56.282Z,26.34
2018-09-05T12:26:56.400Z,26.39
2018-09-05T12:27:56.149Z,26.40
2018-09-05T12:28:56.116Z,26.58
2018-09-05T12:29:56.050Z,26.71
2018-09-05T12:30:56.105Z,26.79
2018-09-05T12:31:55.886Z,26.99
2018-09-05T12:32:55.816Z,26.98
2018-09-05T12:33:55.878Z,26.67
2018-09-05T12:34:55.674Z,26.69
2018-09-05T12:35:55.749Z,26.61
2018-09-05T12:36:55.553Z,26.53
2018-09-05T12:37:55.664Z,26.45
2018-09-05T12:38:55.412Z,26.43
2018-09-05T12:39:55.473Z,26.43
2018-09-05T12:40:55.281Z,26.39
2018-09-05T12:41:55.438Z,26.42
2018-09-05T12:42:55.146Z,26.27
2018-09-05T12:43:55.194Z,26.39
2018-09-05T12:44:55.023Z,26.34
2018-09-05T12:45:55.112Z,26.40
2018-09-05T12:46:54.876Z,26.62
2018-09-05T12:47:55.023Z,26.58
2018-09-05T12:48:54.743Z,26.61
2018-09-05T12:49:54.823Z,26.64
2018-09-05T12:50:54.620Z,26.64
2018-09-05T12:51:54.546Z,26.52